sensor_id;sensor_type;location;lat;lon;timestamp;P1;durP1;ratioP1;P2;durP2;ratioP2
72935;SDS011;61085;48.804;9.228;2022-07-23T00:01:21;5.40;;;5.10;;
72935;SDS011;61085;48.804;9.228;2022-07-23T00:03:48;5.50;;;5.20;;
72935;SDS011;61085;48.804;9.228;2022-07-23T00:06:14;5.20;;;4.90;;
72935;SDS011;61085;48.804;9.228;2022-07-23T00:08:40;5.50;;;5.20;;
72935;SDS011;61085;48.804;9.228;2022-07-23T00:11:06;5.50;;;5.20;;
72935;SDS011;61085;48.804;9.228;2022-07-23T00:13:32;5.33;;;5.00;;
72935;SDS011;61085;48.804;9.228;2022-07-23T00:15:58;9.43;;;5.40;;
72935;SDS011;61085;48.804;9.228;2022-07-23T00:18:23;5.70;;;5.40;;
72935;SDS011;61085;48.804;9.228;2022-07-23T00:20:49;5.73;;;5.33;;
72935;SDS011;61085;48.804;9.228;2022-07-23T00:23:15;6.30;;;5.70;;
72935;SDS011;61085;48.804;9.228;2022-07-23T00:25:41;5.40;;;5.07;;
72935;SDS011;61085;48.804;9.228;2022-07-23T00:28:07;5.53;;;5.33;;
72935;SDS011;61085;48.804;9.228;2022-07-23T00:30:32;5.37;;;5.13;;
72935;SDS011;61085;48.804;9.228;2022-07-23T00:32:59;5.40;;;5.10;;
72935;SDS011;61085;48.804;9.228;2022-07-23T00:35:29;5.60;;;5.30;;
72935;SDS011;61085;48.804;9.228;2022-07-23T00:38:03;5.27;;;4.83;;
72935;SDS011;61085;48.804;9.228;2022-07-23T00:40:29;5.00;;;4.70;;
72935;SDS011;61085;48.804;9.228;2022-07-23T00:42:55;5.27;;;4.10;;
72935;SDS011;61085;48.804;9.228;2022-07-23T00:45:21;4.90;;;4.60;;
72935;SDS011;61085;48.804;9.228;2022-07-23T00:47:47;5.00;;;4.70;;
72935;SDS011;61085;48.804;9.228;2022-07-23T00:50:13;4.97;;;4.47;;
72935;SDS011;61085;48.804;9.228;2022-07-23T00:52:39;5.07;;;4.70;;
72935;SDS011;61085;48.804;9.228;2022-07-23T00:55:06;4.63;;;4.23;;
72935;SDS011;61085;48.804;9.228;2022-07-23T00:57:33;4.67;;;4.37;;
72935;SDS011;61085;48.804;9.228;2022-07-23T00:59:59;5.03;;;4.80;;
72935;SDS011;61085;48.804;9.228;2022-07-23T01:02:25;5.10;;;4.80;;
72935;SDS011;61085;48.804;9.228;2022-07-23T01:04:51;5.00;;;4.80;;
72935;SDS011;61085;48.804;9.228;2022-07-23T01:07:17;4.53;;;4.33;;
72935;SDS011;61085;48.804;9.228;2022-07-23T01:09:44;5.07;;;4.77;;
72935;SDS011;61085;48.804;9.228;2022-07-23T01:12:11;5.60;;;5.00;;
72935;SDS011;61085;48.804;9.228;2022-07-23T01:14:36;5.57;;;5.17;;
72935;SDS011;61085;48.804;9.228;2022-07-23T01:17:02;5.07;;;4.67;;
72935;SDS011;61085;48.804;9.228;2022-07-23T01:19:28;4.60;;;4.30;;
72935;SDS011;61085;48.804;9.228;2022-07-23T01:21:53;5.10;;;4.80;;
72935;SDS011;61085;48.804;9.228;2022-07-23T01:24:21;5.93;;;5.53;;
72935;SDS011;61085;48.804;9.228;2022-07-23T01:26:47;5.33;;;5.03;;
72935;SDS011;61085;48.804;9.228;2022-07-23T01:29:13;5.03;;;4.73;;
72935;SDS011;61085;48.804;9.228;2022-07-23T01:31:40;4.97;;;4.70;;
72935;SDS011;61085;48.804;9.228;2022-07-23T01:34:06;4.57;;;4.37;;
72935;SDS011;61085;48.804;9.228;2022-07-23T01:36:35;5.50;;;5.20;;
72935;SDS011;61085;48.804;9.228;2022-07-23T01:39:02;4.30;;;4.10;;
72935;SDS011;61085;48.804;9.228;2022-07-23T01:41:29;4.60;;;4.30;;
72935;SDS011;61085;48.804;9.228;2022-07-23T01:43:54;4.60;;;4.40;;
72935;SDS011;61085;48.804;9.228;2022-07-23T01:46:20;4.70;;;4.30;;
72935;SDS011;61085;48.804;9.228;2022-07-23T01:48:46;5.40;;;5.03;;
72935;SDS011;61085;48.804;9.228;2022-07-23T01:51:12;5.60;;;5.20;;
72935;SDS011;61085;48.804;9.228;2022-07-23T01:53:37;4.83;;;4.53;;
72935;SDS011;61085;48.804;9.228;2022-07-23T01:56:03;5.63;;;5.23;;
72935;SDS011;61085;48.804;9.228;2022-07-23T01:58:30;5.17;;;4.83;;
72935;SDS011;61085;48.804;9.228;2022-07-23T02:00:55;4.70;;;4.50;;
72935;SDS011;61085;48.804;9.228;2022-07-23T02:03:21;5.80;;;5.30;;
72935;SDS011;61085;48.804;9.228;2022-07-23T02:05:48;4.63;;;4.43;;
72935;SDS011;61085;48.804;9.228;2022-07-23T02:08:14;4.87;;;4.50;;
72935;SDS011;61085;48.804;9.228;2022-07-23T02:10:39;5.00;;;4.10;;
72935;SDS011;61085;48.804;9.228;2022-07-23T02:13:05;5.13;;;4.83;;
72935;SDS011;61085;48.804;9.228;2022-07-23T02:15:31;5.10;;;4.70;;
72935;SDS011;61085;48.804;9.228;2022-07-23T02:17:57;4.80;;;4.60;;
72935;SDS011;61085;48.804;9.228;2022-07-23T02:20:23;5.23;;;4.97;;
72935;SDS011;61085;48.804;9.228;2022-07-23T02:22:49;5.37;;;5.07;;
72935;SDS011;61085;48.804;9.228;2022-07-23T02:25:15;4.83;;;4.53;;
72935;SDS011;61085;48.804;9.228;2022-07-23T02:27:41;4.70;;;4.30;;
72935;SDS011;61085;48.804;9.228;2022-07-23T02:30:07;5.10;;;4.80;;
72935;SDS011;61085;48.804;9.228;2022-07-23T02:32:33;5.33;;;4.90;;
72935;SDS011;61085;48.804;9.228;2022-07-23T02:34:59;5.00;;;4.60;;
72935;SDS011;61085;48.804;9.228;2022-07-23T02:37:26;5.77;;;5.47;;
72935;SDS011;61085;48.804;9.228;2022-07-23T02:39:52;5.87;;;5.53;;
72935;SDS011;61085;48.804;9.228;2022-07-23T02:42:18;5.70;;;5.30;;
72935;SDS011;61085;48.804;9.228;2022-07-23T02:44:43;5.35;;;5.05;;
72935;SDS011;61085;48.804;9.228;2022-07-23T02:47:09;5.57;;;5.27;;
72935;SDS011;61085;48.804;9.228;2022-07-23T02:49:35;5.80;;;5.50;;
72935;SDS011;61085;48.804;9.228;2022-07-23T02:52:00;6.03;;;5.63;;
72935;SDS011;61085;48.804;9.228;2022-07-23T02:54:26;6.73;;;6.20;;
72935;SDS011;61085;48.804;9.228;2022-07-23T02:56:52;4.80;;;4.60;;
72935;SDS011;61085;48.804;9.228;2022-07-23T02:59:18;4.73;;;4.53;;
72935;SDS011;61085;48.804;9.228;2022-07-23T03:01:44;5.13;;;4.73;;
72935;SDS011;61085;48.804;9.228;2022-07-23T03:04:10;5.13;;;4.83;;
72935;SDS011;61085;48.804;9.228;2022-07-23T03:06:36;5.27;;;4.97;;
72935;SDS011;61085;48.804;9.228;2022-07-23T03:09:03;5.13;;;4.83;;
72935;SDS011;61085;48.804;9.228;2022-07-23T03:11:29;5.27;;;4.97;;
72935;SDS011;61085;48.804;9.228;2022-07-23T03:13:54;5.70;;;5.30;;
72935;SDS011;61085;48.804;9.228;2022-07-23T03:16:20;5.33;;;4.93;;
72935;SDS011;61085;48.804;9.228;2022-07-23T03:18:46;5.40;;;5.10;;
72935;SDS011;61085;48.804;9.228;2022-07-23T03:21:11;4.63;;;4.33;;
72935;SDS011;61085;48.804;9.228;2022-07-23T03:23:38;5.30;;;4.97;;
72935;SDS011;61085;48.804;9.228;2022-07-23T03:26:04;5.03;;;4.73;;
72935;SDS011;61085;48.804;9.228;2022-07-23T03:28:29;6.17;;;5.57;;
72935;SDS011;61085;48.804;9.228;2022-07-23T03:30:55;5.30;;;4.97;;
72935;SDS011;61085;48.804;9.228;2022-07-23T03:33:21;5.53;;;5.10;;
72935;SDS011;61085;48.804;9.228;2022-07-23T03:35:47;5.80;;;5.23;;
72935;SDS011;61085;48.804;9.228;2022-07-23T03:38:13;6.30;;;5.73;;
72935;SDS011;61085;48.804;9.228;2022-07-23T03:40:39;5.83;;;5.43;;
72935;SDS011;61085;48.804;9.228;2022-07-23T03:43:05;5.67;;;5.27;;
72935;SDS011;61085;48.804;9.228;2022-07-23T03:45:31;5.57;;;5.20;;
72935;SDS011;61085;48.804;9.228;2022-07-23T03:47:57;5.27;;;4.83;;
72935;SDS011;61085;48.804;9.228;2022-07-23T03:50:23;5.67;;;5.27;;
72935;SDS011;61085;48.804;9.228;2022-07-23T03:52:48;5.63;;;5.13;;
72935;SDS011;61085;48.804;9.228;2022-07-23T03:55:14;6.37;;;5.93;;
72935;SDS011;61085;48.804;9.228;2022-07-23T03:57:40;5.50;;;5.10;;
72935;SDS011;61085;48.804;9.228;2022-07-23T04:00:06;6.20;;;5.60;;
72935;SDS011;61085;48.804;9.228;2022-07-23T04:02:34;5.13;;;4.83;;
72935;SDS011;61085;48.804;9.228;2022-07-23T04:05:00;6.03;;;5.57;;
72935;SDS011;61085;48.804;9.228;2022-07-23T04:07:26;5.93;;;5.43;;
72935;SDS011;61085;48.804;9.228;2022-07-23T04:09:52;6.20;;;5.90;;
72935;SDS011;61085;48.804;9.228;2022-07-23T04:12:17;5.97;;;5.67;;
72935;SDS011;61085;48.804;9.228;2022-07-23T04:14:43;6.53;;;6.10;;
72935;SDS011;61085;48.804;9.228;2022-07-23T04:17:09;7.40;;;6.90;;
72935;SDS011;61085;48.804;9.228;2022-07-23T04:19:36;6.90;;;6.20;;
72935;SDS011;61085;48.804;9.228;2022-07-23T04:22:05;6.13;;;5.63;;
72935;SDS011;61085;48.804;9.228;2022-07-23T04:24:31;6.40;;;6.00;;
72935;SDS011;61085;48.804;9.228;2022-07-23T04:26:57;6.33;;;5.90;;
72935;SDS011;61085;48.804;9.228;2022-07-23T04:29:23;5.80;;;5.50;;
72935;SDS011;61085;48.804;9.228;2022-07-23T04:31:49;5.50;;;5.20;;
72935;SDS011;61085;48.804;9.228;2022-07-23T04:34:15;5.70;;;5.40;;
72935;SDS011;61085;48.804;9.228;2022-07-23T04:36:40;5.83;;;5.43;;
72935;SDS011;61085;48.804;9.228;2022-07-23T04:39:06;5.90;;;5.60;;
72935;SDS011;61085;48.804;9.228;2022-07-23T04:41:32;6.90;;;6.20;;
72935;SDS011;61085;48.804;9.228;2022-07-23T04:43:59;6.50;;;6.00;;
72935;SDS011;61085;48.804;9.228;2022-07-23T04:46:25;6.57;;;6.07;;
72935;SDS011;61085;48.804;9.228;2022-07-23T04:48:51;6.17;;;5.77;;
72935;SDS011;61085;48.804;9.228;2022-07-23T04:51:16;6.63;;;6.07;;
72935;SDS011;61085;48.804;9.228;2022-07-23T04:53:42;6.50;;;6.00;;
72935;SDS011;61085;48.804;9.228;2022-07-23T04:56:07;6.03;;;5.63;;
72935;SDS011;61085;48.804;9.228;2022-07-23T04:58:33;6.07;;;5.77;;
72935;SDS011;61085;48.804;9.228;2022-07-23T05:00:59;6.43;;;5.90;;
72935;SDS011;61085;48.804;9.228;2022-07-23T05:03:24;10.83;;;7.43;;
72935;SDS011;61085;48.804;9.228;2022-07-23T05:05:50;5.93;;;5.53;;
72935;SDS011;61085;48.804;9.228;2022-07-23T05:08:16;7.23;;;6.70;;
72935;SDS011;61085;48.804;9.228;2022-07-23T05:10:41;7.23;;;6.63;;
72935;SDS011;61085;48.804;9.228;2022-07-23T05:13:07;6.40;;;5.40;;
72935;SDS011;61085;48.804;9.228;2022-07-23T05:15:33;6.07;;;5.50;;
72935;SDS011;61085;48.804;9.228;2022-07-23T05:17:58;5.57;;;5.10;;
72935;SDS011;61085;48.804;9.228;2022-07-23T05:20:24;5.87;;;5.30;;
72935;SDS011;61085;48.804;9.228;2022-07-23T05:22:50;5.07;;;4.77;;
72935;SDS011;61085;48.804;9.228;2022-07-23T05:25:16;5.30;;;5.00;;
72935;SDS011;61085;48.804;9.228;2022-07-23T05:27:41;5.77;;;5.47;;
72935;SDS011;61085;48.804;9.228;2022-07-23T05:30:07;5.57;;;5.17;;
72935;SDS011;61085;48.804;9.228;2022-07-23T05:32:33;5.47;;;5.17;;
72935;SDS011;61085;48.804;9.228;2022-07-23T05:34:59;5.70;;;5.40;;
72935;SDS011;61085;48.804;9.228;2022-07-23T05:37:24;5.47;;;5.07;;
72935;SDS011;61085;48.804;9.228;2022-07-23T05:39:50;5.30;;;4.90;;
72935;SDS011;61085;48.804;9.228;2022-07-23T05:42:16;6.50;;;5.90;;
72935;SDS011;61085;48.804;9.228;2022-07-23T05:44:42;5.70;;;5.30;;
72935;SDS011;61085;48.804;9.228;2022-07-23T05:47:08;6.53;;;6.13;;
72935;SDS011;61085;48.804;9.228;2022-07-23T05:49:33;5.60;;;5.30;;
72935;SDS011;61085;48.804;9.228;2022-07-23T05:52:03;5.53;;;5.13;;
72935;SDS011;61085;48.804;9.228;2022-07-23T05:54:30;6.70;;;6.30;;
72935;SDS011;61085;48.804;9.228;2022-07-23T05:56:55;6.50;;;6.10;;
72935;SDS011;61085;48.804;9.228;2022-07-23T05:59:21;6.77;;;6.37;;
72935;SDS011;61085;48.804;9.228;2022-07-23T06:01:46;6.80;;;6.30;;
72935;SDS011;61085;48.804;9.228;2022-07-23T06:04:12;5.53;;;5.23;;
72935;SDS011;61085;48.804;9.228;2022-07-23T06:06:37;5.90;;;5.60;;
72935;SDS011;61085;48.804;9.228;2022-07-23T06:09:03;6.00;;;5.60;;
72935;SDS011;61085;48.804;9.228;2022-07-23T06:11:29;6.90;;;5.20;;
72935;SDS011;61085;48.804;9.228;2022-07-23T06:13:54;5.80;;;5.60;;
72935;SDS011;61085;48.804;9.228;2022-07-23T06:16:20;6.57;;;6.07;;
72935;SDS011;61085;48.804;9.228;2022-07-23T06:18:46;6.87;;;6.03;;
72935;SDS011;61085;48.804;9.228;2022-07-23T06:21:11;6.67;;;6.27;;
72935;SDS011;61085;48.804;9.228;2022-07-23T06:23:37;6.23;;;5.80;;
72935;SDS011;61085;48.804;9.228;2022-07-23T06:26:02;10.33;;;8.00;;
72935;SDS011;61085;48.804;9.228;2022-07-23T06:28:28;7.40;;;6.90;;
72935;SDS011;61085;48.804;9.228;2022-07-23T06:30:54;6.80;;;6.40;;
72935;SDS011;61085;48.804;9.228;2022-07-23T06:33:19;7.70;;;6.93;;
72935;SDS011;61085;48.804;9.228;2022-07-23T06:35:45;7.20;;;6.60;;
72935;SDS011;61085;48.804;9.228;2022-07-23T06:38:11;7.60;;;6.90;;
72935;SDS011;61085;48.804;9.228;2022-07-23T06:40:37;6.40;;;6.00;;
72935;SDS011;61085;48.804;9.228;2022-07-23T06:43:03;7.13;;;6.53;;
72935;SDS011;61085;48.804;9.228;2022-07-23T06:45:29;6.83;;;6.43;;
72935;SDS011;61085;48.804;9.228;2022-07-23T06:47:54;6.63;;;6.17;;
72935;SDS011;61085;48.804;9.228;2022-07-23T06:50:20;7.20;;;6.60;;
72935;SDS011;61085;48.804;9.228;2022-07-23T06:52:46;6.93;;;6.43;;
72935;SDS011;61085;48.804;9.228;2022-07-23T06:55:11;6.60;;;6.10;;
72935;SDS011;61085;48.804;9.228;2022-07-23T06:57:37;6.37;;;5.87;;
72935;SDS011;61085;48.804;9.228;2022-07-23T07:00:03;6.93;;;6.03;;
72935;SDS011;61085;48.804;9.228;2022-07-23T07:02:30;6.87;;;6.37;;
72935;SDS011;61085;48.804;9.228;2022-07-23T07:04:55;7.90;;;7.30;;
72935;SDS011;61085;48.804;9.228;2022-07-23T07:07:21;6.77;;;6.17;;
72935;SDS011;61085;48.804;9.228;2022-07-23T07:09:46;6.60;;;6.20;;
72935;SDS011;61085;48.804;9.228;2022-07-23T07:12:12;7.67;;;6.80;;
72935;SDS011;61085;48.804;9.228;2022-07-23T07:14:38;9.90;;;6.27;;
72935;SDS011;61085;48.804;9.228;2022-07-23T07:17:03;6.93;;;6.40;;
72935;SDS011;61085;48.804;9.228;2022-07-23T07:19:29;7.40;;;6.80;;
72935;SDS011;61085;48.804;9.228;2022-07-23T07:21:55;7.50;;;7.07;;
72935;SDS011;61085;48.804;9.228;2022-07-23T07:24:21;7.87;;;7.00;;
72935;SDS011;61085;48.804;9.228;2022-07-23T07:26:46;7.67;;;7.00;;
72935;SDS011;61085;48.804;9.228;2022-07-23T07:29:12;7.50;;;6.87;;
72935;SDS011;61085;48.804;9.228;2022-07-23T07:31:38;8.20;;;7.40;;
72935;SDS011;61085;48.804;9.228;2022-07-23T07:34:03;7.67;;;7.17;;
72935;SDS011;61085;48.804;9.228;2022-07-23T07:36:29;8.07;;;7.37;;
72935;SDS011;61085;48.804;9.228;2022-07-23T07:38:55;7.80;;;7.20;;
72935;SDS011;61085;48.804;9.228;2022-07-23T07:41:20;7.77;;;7.13;;
72935;SDS011;61085;48.804;9.228;2022-07-23T07:43:49;7.50;;;6.57;;
72935;SDS011;61085;48.804;9.228;2022-07-23T07:46:15;7.73;;;7.03;;
72935;SDS011;61085;48.804;9.228;2022-07-23T07:48:41;9.17;;;8.30;;
72935;SDS011;61085;48.804;9.228;2022-07-23T07:51:06;9.97;;;6.90;;
72935;SDS011;61085;48.804;9.228;2022-07-23T07:53:32;9.13;;;7.10;;
72935;SDS011;61085;48.804;9.228;2022-07-23T07:55:58;7.07;;;6.60;;
72935;SDS011;61085;48.804;9.228;2022-07-23T07:58:24;7.60;;;6.90;;
72935;SDS011;61085;48.804;9.228;2022-07-23T08:00:49;7.57;;;6.93;;
72935;SDS011;61085;48.804;9.228;2022-07-23T08:03:16;7.40;;;6.70;;
72935;SDS011;61085;48.804;9.228;2022-07-23T08:05:42;7.70;;;7.10;;
72935;SDS011;61085;48.804;9.228;2022-07-23T08:08:07;7.07;;;6.67;;
72935;SDS011;61085;48.804;9.228;2022-07-23T08:10:34;7.17;;;6.63;;
72935;SDS011;61085;48.804;9.228;2022-07-23T08:13:00;8.10;;;7.50;;
72935;SDS011;61085;48.804;9.228;2022-07-23T08:15:26;7.10;;;6.70;;
72935;SDS011;61085;48.804;9.228;2022-07-23T08:17:53;7.60;;;7.00;;
72935;SDS011;61085;48.804;9.228;2022-07-23T08:20:20;7.20;;;6.60;;
72935;SDS011;61085;48.804;9.228;2022-07-23T08:25:16;5.93;;;5.63;;
72935;SDS011;61085;48.804;9.228;2022-07-23T08:27:51;7.80;;;7.30;;
72935;SDS011;61085;48.804;9.228;2022-07-23T08:30:17;6.30;;;6.00;;
72935;SDS011;61085;48.804;9.228;2022-07-23T08:35:32;6.50;;;6.10;;
72935;SDS011;61085;48.804;9.228;2022-07-23T08:38:00;7.30;;;6.80;;
72935;SDS011;61085;48.804;9.228;2022-07-23T08:40:29;7.73;;;7.17;;
72935;SDS011;61085;48.804;9.228;2022-07-23T08:42:56;7.87;;;7.13;;
72935;SDS011;61085;48.804;9.228;2022-07-23T08:45:22;6.60;;;6.20;;
72935;SDS011;61085;48.804;9.228;2022-07-23T08:47:54;7.17;;;6.77;;
72935;SDS011;61085;48.804;9.228;2022-07-23T08:50:21;7.80;;;7.20;;
72935;SDS011;61085;48.804;9.228;2022-07-23T08:52:49;6.43;;;5.83;;
72935;SDS011;61085;48.804;9.228;2022-07-23T08:55:19;7.40;;;6.90;;
72935;SDS011;61085;48.804;9.228;2022-07-23T08:57:47;6.33;;;5.93;;
72935;SDS011;61085;48.804;9.228;2022-07-23T09:00:15;6.13;;;5.73;;
72935;SDS011;61085;48.804;9.228;2022-07-23T09:02:43;6.70;;;6.30;;
72935;SDS011;61085;48.804;9.228;2022-07-23T09:05:10;6.43;;;6.13;;
72935;SDS011;61085;48.804;9.228;2022-07-23T09:07:37;5.50;;;5.20;;
72935;SDS011;61085;48.804;9.228;2022-07-23T09:10:23;6.33;;;5.93;;
72935;SDS011;61085;48.804;9.228;2022-07-23T09:12:48;6.67;;;6.27;;
72935;SDS011;61085;48.804;9.228;2022-07-23T09:15:14;6.30;;;5.80;;
72935;SDS011;61085;48.804;9.228;2022-07-23T09:17:41;5.77;;;5.47;;
72935;SDS011;61085;48.804;9.228;2022-07-23T09:20:12;6.63;;;6.23;;
72935;SDS011;61085;48.804;9.228;2022-07-23T09:22:45;6.50;;;6.00;;
72935;SDS011;61085;48.804;9.228;2022-07-23T09:25:16;6.60;;;6.07;;
72935;SDS011;61085;48.804;9.228;2022-07-23T09:30:26;5.90;;;5.60;;
72935;SDS011;61085;48.804;9.228;2022-07-23T09:33:06;6.53;;;6.13;;
72935;SDS011;61085;48.804;9.228;2022-07-23T09:38:14;6.43;;;6.07;;
72935;SDS011;61085;48.804;9.228;2022-07-23T09:40:41;6.00;;;5.60;;
72935;SDS011;61085;48.804;9.228;2022-07-23T09:43:06;6.90;;;6.50;;
72935;SDS011;61085;48.804;9.228;2022-07-23T09:45:32;6.03;;;5.67;;
72935;SDS011;61085;48.804;9.228;2022-07-23T09:48:10;6.40;;;5.97;;
72935;SDS011;61085;48.804;9.228;2022-07-23T09:50:36;5.60;;;5.30;;
72935;SDS011;61085;48.804;9.228;2022-07-23T09:53:02;6.50;;;5.97;;
72935;SDS011;61085;48.804;9.228;2022-07-23T09:55:34;6.60;;;6.07;;
72935;SDS011;61085;48.804;9.228;2022-07-23T09:58:07;5.60;;;5.27;;
72935;SDS011;61085;48.804;9.228;2022-07-23T10:00:42;5.67;;;5.30;;
72935;SDS011;61085;48.804;9.228;2022-07-23T10:03:10;5.90;;;5.60;;
72935;SDS011;61085;48.804;9.228;2022-07-23T10:05:38;7.27;;;5.87;;
72935;SDS011;61085;48.804;9.228;2022-07-23T10:08:08;5.93;;;5.60;;
72935;SDS011;61085;48.804;9.228;2022-07-23T10:10:38;5.90;;;5.60;;
72935;SDS011;61085;48.804;9.228;2022-07-23T10:13:04;6.60;;;6.10;;
72935;SDS011;61085;48.804;9.228;2022-07-23T10:15:49;6.37;;;6.07;;
72935;SDS011;61085;48.804;9.228;2022-07-23T10:18:16;5.67;;;5.37;;
72935;SDS011;61085;48.804;9.228;2022-07-23T10:20:42;7.03;;;6.63;;
72935;SDS011;61085;48.804;9.228;2022-07-23T10:23:24;6.13;;;5.60;;
72935;SDS011;61085;48.804;9.228;2022-07-23T10:26:46;5.70;;;5.40;;
72935;SDS011;61085;48.804;9.228;2022-07-23T10:29:13;6.43;;;5.93;;
72935;SDS011;61085;48.804;9.228;2022-07-23T10:39:38;6.10;;;5.80;;
72935;SDS011;61085;48.804;9.228;2022-07-23T10:42:11;5.40;;;5.10;;
72935;SDS011;61085;48.804;9.228;2022-07-23T10:44:38;6.10;;;5.77;;
72935;SDS011;61085;48.804;9.228;2022-07-23T10:47:09;6.50;;;6.10;;
72935;SDS011;61085;48.804;9.228;2022-07-23T10:49:47;6.90;;;6.50;;
72935;SDS011;61085;48.804;9.228;2022-07-23T10:54:42;6.30;;;6.00;;
72935;SDS011;61085;48.804;9.228;2022-07-23T10:57:08;7.33;;;6.83;;
72935;SDS011;61085;48.804;9.228;2022-07-23T11:02:37;7.33;;;5.63;;
72935;SDS011;61085;48.804;9.228;2022-07-23T11:05:08;5.57;;;5.27;;
72935;SDS011;61085;48.804;9.228;2022-07-23T11:10:35;6.20;;;5.80;;
72935;SDS011;61085;48.804;9.228;2022-07-23T11:19:02;7.20;;;6.70;;
72935;SDS011;61085;48.804;9.228;2022-07-23T11:31:56;7.10;;;6.60;;
72935;SDS011;61085;48.804;9.228;2022-07-23T11:34:33;6.00;;;5.60;;
72935;SDS011;61085;48.804;9.228;2022-07-23T11:38:02;6.30;;;5.90;;
72935;SDS011;61085;48.804;9.228;2022-07-23T11:40:07;6.87;;;6.47;;
72935;SDS011;61085;48.804;9.228;2022-07-23T11:45:18;12.30;;;11.30;;
72935;SDS011;61085;48.804;9.228;2022-07-23T11:47:44;6.40;;;5.80;;
72935;SDS011;61085;48.804;9.228;2022-07-23T11:50:10;6.87;;;6.17;;
72935;SDS011;61085;48.804;9.228;2022-07-23T11:52:36;5.67;;;5.30;;
72935;SDS011;61085;48.804;9.228;2022-07-23T11:55:03;6.57;;;5.60;;
72935;SDS011;61085;48.804;9.228;2022-07-23T11:57:39;6.70;;;6.20;;
72935;SDS011;61085;48.804;9.228;2022-07-23T12:00:07;7.27;;;5.70;;
72935;SDS011;61085;48.804;9.228;2022-07-23T12:02:45;5.77;;;5.40;;
72935;SDS011;61085;48.804;9.228;2022-07-23T12:05:13;6.40;;;5.90;;
72935;SDS011;61085;48.804;9.228;2022-07-23T12:07:41;5.67;;;5.10;;
72935;SDS011;61085;48.804;9.228;2022-07-23T12:12:44;6.33;;;5.93;;
72935;SDS011;61085;48.804;9.228;2022-07-23T12:15:15;8.70;;;6.80;;
72935;SDS011;61085;48.804;9.228;2022-07-23T12:17:42;7.60;;;7.00;;
72935;SDS011;61085;48.804;9.228;2022-07-23T12:20:13;9.57;;;7.57;;
72935;SDS011;61085;48.804;9.228;2022-07-23T12:22:41;6.97;;;6.23;;
72935;SDS011;61085;48.804;9.228;2022-07-23T12:25:12;8.03;;;6.70;;
72935;SDS011;61085;48.804;9.228;2022-07-23T12:27:42;6.90;;;6.50;;
72935;SDS011;61085;48.804;9.228;2022-07-23T12:30:25;6.57;;;6.27;;
72935;SDS011;61085;48.804;9.228;2022-07-23T12:32:53;6.83;;;6.33;;
72935;SDS011;61085;48.804;9.228;2022-07-23T12:35:20;6.00;;;5.70;;
72935;SDS011;61085;48.804;9.228;2022-07-23T12:37:47;6.60;;;6.17;;
72935;SDS011;61085;48.804;9.228;2022-07-23T12:42:58;7.63;;;7.13;;
72935;SDS011;61085;48.804;9.228;2022-07-23T12:45:25;7.20;;;6.37;;
72935;SDS011;61085;48.804;9.228;2022-07-23T12:47:57;6.40;;;5.97;;
72935;SDS011;61085;48.804;9.228;2022-07-23T12:50:37;6.53;;;6.13;;
72935;SDS011;61085;48.804;9.228;2022-07-23T12:53:17;7.43;;;6.50;;
72935;SDS011;61085;48.804;9.228;2022-07-23T12:55:48;7.60;;;7.10;;
72935;SDS011;61085;48.804;9.228;2022-07-23T12:58:16;7.03;;;6.53;;
72935;SDS011;61085;48.804;9.228;2022-07-23T13:03:24;6.97;;;6.57;;
72935;SDS011;61085;48.804;9.228;2022-07-23T13:05:55;7.90;;;7.37;;
72935;SDS011;61085;48.804;9.228;2022-07-23T13:08:22;7.03;;;6.60;;
72935;SDS011;61085;48.804;9.228;2022-07-23T13:10:49;7.23;;;6.77;;
72935;SDS011;61085;48.804;9.228;2022-07-23T13:13:16;6.67;;;6.37;;
72935;SDS011;61085;48.804;9.228;2022-07-23T13:15:45;6.90;;;6.50;;
72935;SDS011;61085;48.804;9.228;2022-07-23T13:18:10;6.90;;;6.40;;
72935;SDS011;61085;48.804;9.228;2022-07-23T13:20:36;7.93;;;7.43;;
72935;SDS011;61085;48.804;9.228;2022-07-23T13:23:03;7.43;;;7.03;;
72935;SDS011;61085;48.804;9.228;2022-07-23T13:25:30;6.97;;;6.57;;
72935;SDS011;61085;48.804;9.228;2022-07-23T13:27:56;6.57;;;5.97;;
72935;SDS011;61085;48.804;9.228;2022-07-23T13:30:21;6.47;;;5.97;;
72935;SDS011;61085;48.804;9.228;2022-07-23T13:32:47;6.43;;;5.87;;
72935;SDS011;61085;48.804;9.228;2022-07-23T13:35:13;7.53;;;7.13;;
72935;SDS011;61085;48.804;9.228;2022-07-23T13:37:39;7.23;;;6.73;;
72935;SDS011;61085;48.804;9.228;2022-07-23T13:40:05;7.33;;;6.83;;
72935;SDS011;61085;48.804;9.228;2022-07-23T13:42:31;7.70;;;7.10;;
72935;SDS011;61085;48.804;9.228;2022-07-23T13:44:57;7.47;;;6.97;;
72935;SDS011;61085;48.804;9.228;2022-07-23T13:47:22;7.80;;;7.30;;
72935;SDS011;61085;48.804;9.228;2022-07-23T13:49:48;7.70;;;7.20;;
72935;SDS011;61085;48.804;9.228;2022-07-23T13:52:13;7.07;;;6.70;;
72935;SDS011;61085;48.804;9.228;2022-07-23T13:54:39;7.40;;;7.00;;
72935;SDS011;61085;48.804;9.228;2022-07-23T13:57:05;8.30;;;7.50;;
72935;SDS011;61085;48.804;9.228;2022-07-23T13:59:31;9.27;;;8.57;;
72935;SDS011;61085;48.804;9.228;2022-07-23T14:01:56;8.63;;;8.03;;
72935;SDS011;61085;48.804;9.228;2022-07-23T14:04:22;7.93;;;7.43;;
72935;SDS011;61085;48.804;9.228;2022-07-23T14:06:48;9.77;;;9.17;;
72935;SDS011;61085;48.804;9.228;2022-07-23T14:09:13;8.80;;;8.03;;
72935;SDS011;61085;48.804;9.228;2022-07-23T14:11:39;8.37;;;7.87;;
72935;SDS011;61085;48.804;9.228;2022-07-23T14:14:05;8.47;;;7.97;;
72935;SDS011;61085;48.804;9.228;2022-07-23T14:16:31;7.93;;;7.50;;
72935;SDS011;61085;48.804;9.228;2022-07-23T14:18:56;7.70;;;7.20;;
72935;SDS011;61085;48.804;9.228;2022-07-23T14:21:22;7.67;;;7.17;;
72935;SDS011;61085;48.804;9.228;2022-07-23T14:23:48;7.83;;;7.23;;
72935;SDS011;61085;48.804;9.228;2022-07-23T14:26:13;8.27;;;7.77;;
72935;SDS011;61085;48.804;9.228;2022-07-23T14:28:39;8.57;;;7.90;;
72935;SDS011;61085;48.804;9.228;2022-07-23T14:31:05;7.87;;;7.47;;
72935;SDS011;61085;48.804;9.228;2022-07-23T14:33:30;8.40;;;7.90;;
72935;SDS011;61085;48.804;9.228;2022-07-23T14:35:56;8.00;;;7.50;;
72935;SDS011;61085;48.804;9.228;2022-07-23T14:38:23;7.97;;;7.37;;
72935;SDS011;61085;48.804;9.228;2022-07-23T14:40:49;7.73;;;7.23;;
72935;SDS011;61085;48.804;9.228;2022-07-23T14:43:15;7.87;;;7.40;;
72935;SDS011;61085;48.804;9.228;2022-07-23T14:45:40;7.97;;;7.43;;
72935;SDS011;61085;48.804;9.228;2022-07-23T14:48:06;7.03;;;6.53;;
72935;SDS011;61085;48.804;9.228;2022-07-23T14:50:32;7.30;;;6.90;;
72935;SDS011;61085;48.804;9.228;2022-07-23T14:52:57;7.60;;;7.20;;
72935;SDS011;61085;48.804;9.228;2022-07-23T14:55:23;6.87;;;6.40;;
72935;SDS011;61085;48.804;9.228;2022-07-23T14:57:49;7.57;;;7.17;;
72935;SDS011;61085;48.804;9.228;2022-07-23T15:00:16;7.77;;;7.37;;
72935;SDS011;61085;48.804;9.228;2022-07-23T15:02:41;7.90;;;7.43;;
72935;SDS011;61085;48.804;9.228;2022-07-23T15:05:07;7.60;;;7.20;;
72935;SDS011;61085;48.804;9.228;2022-07-23T15:07:33;8.23;;;7.83;;
72935;SDS011;61085;48.804;9.228;2022-07-23T15:09:58;7.73;;;7.27;;
72935;SDS011;61085;48.804;9.228;2022-07-23T15:12:24;7.97;;;7.47;;
72935;SDS011;61085;48.804;9.228;2022-07-23T15:14:50;9.10;;;7.93;;
72935;SDS011;61085;48.804;9.228;2022-07-23T15:17:15;7.60;;;7.10;;
72935;SDS011;61085;48.804;9.228;2022-07-23T15:19:41;8.10;;;7.50;;
72935;SDS011;61085;48.804;9.228;2022-07-23T15:22:07;7.60;;;7.17;;
72935;SDS011;61085;48.804;9.228;2022-07-23T15:24:33;7.43;;;7.03;;
72935;SDS011;61085;48.804;9.228;2022-07-23T15:26:58;7.60;;;7.10;;
72935;SDS011;61085;48.804;9.228;2022-07-23T15:29:24;8.10;;;7.67;;
72935;SDS011;61085;48.804;9.228;2022-07-23T15:31:50;7.90;;;7.30;;
72935;SDS011;61085;48.804;9.228;2022-07-23T15:34:15;7.53;;;6.93;;
72935;SDS011;61085;48.804;9.228;2022-07-23T15:36:41;8.17;;;7.57;;
72935;SDS011;61085;48.804;9.228;2022-07-23T15:39:07;6.77;;;6.23;;
72935;SDS011;61085;48.804;9.228;2022-07-23T15:41:32;8.20;;;7.63;;